Time;durP1;ratioP1;P1;durP2;ratioP2;P2;SDS_P1;SDS_P2;PMS_P1;PMS_P2;Temp;Humidity;BMP_temperature;BMP_pressure;BME280_temperature;BME280_humidity;BME280_pressure;Samples;Min_cycle;Max_cycle;Signal;HPM_P1;HPM_P2
2023/08/26 00:00:20;;;;;;;10.13;9.00;;;19.90;1.00;;;;;;6339711;22;20147;-56
2023/08/26 00:02:46;;;;;;;9.10;8.20;;;19.80;1.00;;;;;;6339157;22;20171;-56
2023/08/26 00:05:12;;;;;;;9.40;8.67;;;19.70;1.00;;;;;;6339216;22;20131;-56
2023/08/26 00:07:37;;;;;;;9.97;8.93;;;19.60;1.00;;;;;;6338574;22;20136;-56
2023/08/26 00:10:03;;;;;;;9.27;8.43;;;19.60;1.00;;;;;;6338763;22;20151;-56
2023/08/26 00:12:29;;;;;;;9.20;8.30;;;19.50;1.00;;;;;;6338786;22;20156;-56
2023/08/26 00:14:55;;;;;;;10.23;8.77;;;19.50;1.00;;;;;;6338579;22;20432;-53
2023/08/26 00:17:20;;;;;;;9.20;8.40;;;19.40;1.00;;;;;;6338335;22;20534;-55
2023/08/26 00:19:46;;;;;;;10.50;8.57;;;19.40;1.00;;;;;;6339089;22;20132;-55
2023/08/26 00:22:12;;;;;;;9.97;8.97;;;19.40;1.00;;;;;;6339941;22;20174;-54
2023/08/26 00:24:37;;;;;;;10.13;9.17;;;19.40;1.00;;;;;;6340269;22;20183;-53
2023/08/26 00:27:05;;;;;;;10.10;8.50;;;19.30;1.00;;;;;;6340527;22;20159;-54
2023/08/26 00:29:32;;;;;;;11.40;8.60;;;19.20;1.00;;;;;;6341140;22;20255;-58
2023/08/26 00:31:57;;;;;;;8.27;7.47;;;19.20;1.00;;;;;;6339997;22;20781;-54
2023/08/26 00:34:23;;;;;;;6.27;5.30;;;19.20;1.00;;;;;;6340587;22;20420;-55
2023/08/26 00:36:49;;;;;;;5.43;4.97;;;19.10;1.00;;;;;;6340411;22;20147;-56
2023/08/26 00:39:14;;;;;;;6.10;4.90;;;19.20;1.00;;;;;;6341127;22;20144;-57
2023/08/26 00:41:40;;;;;;;5.90;4.70;;;19.10;1.00;;;;;;6340563;22;20181;-56
2023/08/26 00:44:05;;;;;;;6.20;4.27;;;19.20;1.00;;;;;;6339315;22;20142;-51
2023/08/26 00:46:31;;;;;;;6.23;4.90;;;19.20;1.00;;;;;;6338879;22;20543;-56
2023/08/26 00:48:58;;;;;;;5.40;4.83;;;19.20;1.00;;;;;;6340778;22;20231;-56
2023/08/26 00:51:24;;;;;;;5.97;4.60;;;19.20;1.00;;;;;;6313317;22;20147;-56
2023/08/26 00:53:50;;;;;;;4.70;4.30;;;19.20;1.00;;;;;;6340119;22;20613;-55
2023/08/26 00:56:16;;;;;;;4.90;4.40;;;19.10;1.00;;;;;;6339170;22;20510;-56
2023/08/26 00:58:42;;;;;;;5.10;4.50;;;19.20;1.00;;;;;;6339497;22;20139;-56
2023/08/26 01:01:07;;;;;;;5.03;4.50;;;19.20;1.00;;;;;;6339148;22;20814;-55
2023/08/26 01:03:34;;;;;;;4.90;4.40;;;19.20;1.00;;;;;;6337978;22;20668;-56
2023/08/26 01:06:00;;;;;;;4.37;3.97;;;19.20;1.00;;;;;;6339013;22;20237;-56
2023/08/26 01:08:26;;;;;;;5.13;4.63;;;19.20;1.00;;;;;;6338984;22;20853;-54
2023/08/26 01:11:16;;;;;;;4.50;4.10;;;19.20;1.00;;;;;;6338513;22;20369;-55
2023/08/26 01:14:02;;;;;;;5.90;4.37;;;19.30;1.00;;;;;;6339243;22;20354;-54
2023/08/26 01:16:28;;;;;;;6.90;4.20;;;19.30;1.00;;;;;;6337431;22;20794;-54
2023/08/26 01:18:55;;;;;;;5.80;4.33;;;19.20;1.00;;;;;;6310855;22;20382;-55
2023/08/26 01:21:24;;;;;;;5.60;4.40;;;19.10;1.00;;;;;;6312679;22;20381;-56
2023/08/26 01:23:50;;;;;;;4.70;4.30;;;19.10;1.00;;;;;;6339205;22;20386;-57
2023/08/26 01:26:16;;;;;;;5.73;4.70;;;19.00;1.00;;;;;;6339826;22;20361;-55
2023/08/26 01:28:42;;;;;;;4.67;3.80;;;18.90;1.00;;;;;;6340179;22;20411;-55
2023/08/26 01:31:10;;;;;;;4.30;3.90;;;18.90;1.00;;;;;;6340375;22;20385;-56
2023/08/26 01:33:44;;;;;;;4.97;4.47;;;18.90;1.00;;;;;;6340264;22;20222;-56
2023/08/26 01:36:14;;;;;;;5.03;4.23;;;19.00;1.00;;;;;;6338863;22;20473;-55
2023/08/26 01:38:40;;;;;;;6.40;4.67;;;19.00;1.00;;;;;;6338766;22;20888;-56
2023/08/26 01:41:08;;;;;;;3.83;3.53;;;19.00;1.00;;;;;;6311037;22;20686;-53
2023/08/26 01:43:34;;;;;;;6.03;4.30;;;19.10;1.00;;;;;;6339354;22;20626;-56
2023/08/26 01:45:59;;;;;;;5.30;4.40;;;19.10;1.00;;;;;;6339990;22;20380;-57
2023/08/26 01:48:25;;;;;;;5.73;4.30;;;19.10;1.00;;;;;;6338600;22;20381;-55
2023/08/26 01:50:51;;;;;;;4.73;4.23;;;19.10;1.00;;;;;;6311894;22;20174;-56
2023/08/26 01:53:16;;;;;;;4.53;4.00;;;19.10;1.00;;;;;;6312505;22;20182;-55
2023/08/26 01:55:42;;;;;;;5.33;4.00;;;19.20;1.00;;;;;;6340029;22;20234;-56
2023/08/26 01:58:07;;;;;;;5.23;4.80;;;19.10;1.00;;;;;;6340352;22;20192;-57
2023/08/26 02:00:33;;;;;;;4.90;4.33;;;19.20;1.00;;;;;;6340358;22;20182;-57
2023/08/26 02:02:59;;;;;;;4.97;4.03;;;19.20;1.00;;;;;;6339976;22;20403;-55
2023/08/26 02:05:24;;;;;;;4.87;4.47;;;19.20;1.00;;;;;;6339204;22;20131;-61
2023/08/26 02:07:50;;;;;;;5.00;4.60;;;19.20;1.00;;;;;;6340790;22;20139;-57
2023/08/26 02:10:16;;;;;;;5.93;4.50;;;19.30;1.00;;;;;;6341608;22;20222;-56
2023/08/26 02:12:41;;;;;;;5.90;4.33;;;19.30;1.00;;;;;;6341461;22;20158;-55
2023/08/26 02:15:08;;;;;;;5.00;3.93;;;19.30;1.00;;;;;;6340807;22;20594;-55
2023/08/26 02:17:34;;;;;;;4.23;3.93;;;19.30;1.00;;;;;;6340325;22;20531;-57
2023/08/26 02:19:59;;;;;;;5.00;4.23;;;19.30;1.00;;;;;;6312923;22;20451;-57
2023/08/26 02:22:25;;;;;;;5.17;4.50;;;19.40;1.00;;;;;;6340696;22;20143;-57
2023/08/26 02:24:51;;;;;;;4.70;4.20;;;19.40;1.00;;;;;;6340390;22;20155;-56
2023/08/26 02:27:17;;;;;;;5.20;4.70;;;19.30;1.00;;;;;;6340919;22;20208;-57
2023/08/26 02:29:42;;;;;;;11.13;5.30;;;19.30;1.00;;;;;;6341074;22;20660;-57
2023/08/26 02:32:09;;;;;;;4.70;4.30;;;19.30;1.00;;;;;;6340893;22;20662;-58
2023/08/26 02:34:37;;;;;;;4.23;3.93;;;19.40;1.00;;;;;;6341927;22;20167;-56
2023/08/26 02:37:03;;;;;;;4.70;4.30;;;19.30;1.00;;;;;;6341318;22;20734;-57
2023/08/26 02:39:28;;;;;;;4.87;4.37;;;19.30;1.00;;;;;;6340409;22;20377;-56
2023/08/26 02:41:54;;;;;;;5.17;4.23;;;19.40;1.00;;;;;;6340163;22;20396;-57
2023/08/26 02:44:20;;;;;;;6.10;4.50;;;19.40;1.00;;;;;;6339795;22;20291;-57
2023/08/26 02:46:46;;;;;;;5.27;4.77;;;19.40;1.00;;;;;;6338365;22;20468;-56
2023/08/26 02:49:11;;;;;;;5.60;4.40;;;19.40;1.00;;;;;;6339843;22;20212;-57
2023/08/26 02:51:38;;;;;;;5.30;4.80;;;19.30;1.00;;;;;;6339571;22;20208;-57
2023/08/26 02:54:04;;;;;;;4.93;4.53;;;19.30;1.00;;;;;;6339620;22;20544;-57
2023/08/26 02:56:29;;;;;;;4.83;4.43;;;19.20;1.00;;;;;;6340660;22;20396;-56
2023/08/26 02:58:55;;;;;;;5.83;5.30;;;19.20;1.00;;;;;;6340134;22;20185;-55
2023/08/26 03:01:21;;;;;;;5.23;4.73;;;19.20;1.00;;;;;;6341045;22;20147;-55
2023/08/26 03:03:46;;;;;;;4.90;4.50;;;19.20;1.00;;;;;;6342044;22;20504;-56
2023/08/26 03:06:12;;;;;;;5.97;5.43;;;19.20;1.00;;;;;;6341684;22;20163;-57
2023/08/26 03:08:37;;;;;;;5.27;4.77;;;19.20;1.00;;;;;;6340908;22;20183;-57
2023/08/26 03:11:04;;;;;;;6.37;5.37;;;19.20;1.00;;;;;;6341034;22;20281;-57
2023/08/26 03:13:31;;;;;;;6.93;6.17;;;19.20;1.00;;;;;;6342472;22;20372;-56
2023/08/26 03:15:57;;;;;;;6.27;5.63;;;19.20;1.00;;;;;;6341111;22;20479;-56
2023/08/26 03:18:23;;;;;;;7.30;5.47;;;19.20;1.00;;;;;;6339890;22;20772;-57
2023/08/26 03:20:49;;;;;;;7.63;6.83;;;19.10;1.00;;;;;;6339869;22;20393;-58
2023/08/26 03:23:15;;;;;;;7.63;6.93;;;19.10;1.00;;;;;;6339884;22;20354;-57
2023/08/26 03:25:41;;;;;;;6.47;5.87;;;19.10;1.00;;;;;;6312253;22;20192;-57
2023/08/26 03:28:10;;;;;;;7.47;6.43;;;19.10;1.00;;;;;;6339993;22;20392;-56
2023/08/26 03:30:36;;;;;;;7.07;5.60;;;19.10;1.00;;;;;;6339170;22;20381;-57
2023/08/26 03:33:02;;;;;;;6.37;5.87;;;19.10;1.00;;;;;;6339995;22;20381;-57
2023/08/26 03:35:28;;;;;;;6.60;5.70;;;19.10;1.00;;;;;;6340305;22;20512;-57
2023/08/26 03:37:54;;;;;;;7.27;6.00;;;19.00;1.00;;;;;;6339812;22;20440;-57
2023/08/26 03:40:22;;;;;;;6.80;5.77;;;19.00;1.00;;;;;;6339871;22;20263;-55
2023/08/26 03:42:51;;;;;;;5.53;5.03;;;18.90;1.00;;;;;;6338748;22;20159;-55
2023/08/26 03:45:17;;;;;;;7.40;5.67;;;18.90;1.00;;;;;;6338278;22;20392;-57
2023/08/26 03:47:43;;;;;;;7.70;6.13;;;18.80;1.00;;;;;;6337604;22;20389;-57
2023/08/26 03:50:09;;;;;;;8.70;5.73;;;18.80;1.00;;;;;;6338128;22;20128;-55
2023/08/26 03:52:34;;;;;;;16.43;8.07;;;18.70;1.00;;;;;;6338846;22;20139;-55
2023/08/26 03:55:01;;;;;;;5.87;5.33;;;18.70;1.00;;;;;;6339503;22;20440;-56
2023/08/26 03:57:26;;;;;;;6.83;6.23;;;18.70;1.00;;;;;;6339888;22;20151;-56
2023/08/26 03:59:52;;;;;;;7.80;6.43;;;18.70;1.00;;;;;;6340834;22;20393;-57
2023/08/26 04:02:19;;;;;;;9.30;6.53;;;18.60;1.00;;;;;;6339977;22;20132;-54
2023/08/26 04:04:44;;;;;;;8.13;7.20;;;18.60;1.00;;;;;;6341794;22;20194;-51
2023/08/26 04:07:10;;;;;;;7.50;6.70;;;18.70;1.00;;;;;;6341400;22;20488;-54
2023/08/26 04:09:36;;;;;;;6.80;6.10;;;18.70;1.00;;;;;;6314245;22;20216;-56
2023/08/26 04:12:02;;;;;;;7.00;6.30;;;18.70;1.00;;;;;;6341195;22;20431;-54
2023/08/26 04:14:28;;;;;;;7.87;5.47;;;18.70;1.00;;;;;;6341606;22;20562;-53
2023/08/26 04:16:54;;;;;;;7.03;5.87;;;18.70;1.00;;;;;;6341222;22;20448;-55
2023/08/26 04:19:19;;;;;;;8.43;5.53;;;18.80;1.00;;;;;;6342013;22;20399;-54
2023/08/26 04:21:45;;;;;;;7.60;5.40;;;18.90;1.00;;;;;;6341715;22;20407;-53
2023/08/26 04:24:11;;;;;;;5.97;5.47;;;19.00;1.00;;;;;;6341101;22;20422;-55
2023/08/26 04:26:36;;;;;;;9.00;5.90;;;19.00;1.00;;;;;;6341459;22;20155;-56
2023/08/26 04:29:02;;;;;;;8.00;5.70;;;19.00;1.00;;;;;;6341506;22;20131;-54
2023/08/26 04:31:28;;;;;;;6.43;5.37;;;18.90;1.00;;;;;;6341305;22;20200;-54
2023/08/26 04:33:53;;;;;;;9.77;6.40;;;18.80;1.00;;;;;;6341117;22;20399;-55
2023/08/26 04:36:19;;;;;;;6.33;5.70;;;18.80;1.00;;;;;;6341075;22;20180;-51
2023/08/26 04:38:45;;;;;;;6.90;5.43;;;18.70;1.00;;;;;;6340298;22;20147;-53
2023/08/26 04:41:11;;;;;;;6.80;6.10;;;18.70;1.00;;;;;;6339042;22;20187;-54
2023/08/26 04:43:37;;;;;;;6.63;4.90;;;18.70;1.00;;;;;;6339729;22;20377;-54
2023/08/26 04:46:03;;;;;;;5.77;5.20;;;18.80;1.00;;;;;;6312962;22;20223;-55
2023/08/26 04:48:28;;;;;;;7.73;5.40;;;18.90;1.00;;;;;;6341088;22;20292;-52
2023/08/26 04:50:55;;;;;;;6.30;5.53;;;18.90;1.00;;;;;;6339807;22;20764;-52
2023/08/26 04:53:20;;;;;;;7.53;5.77;;;18.90;1.00;;;;;;6312379;22;20159;-51
2023/08/26 04:55:52;;;;;;;5.60;5.00;;;19.00;99.90;;;;;;6340710;22;20465;-54
2023/08/26 04:58:18;;;;;;;7.00;6.17;;;19.00;99.90;;;;;;6342147;22;20139;-52
2023/08/26 05:00:45;;;;;;;5.53;5.03;;;19.10;99.90;;;;;;6342284;22;20472;-53
2023/08/26 05:03:10;;;;;;;6.97;5.40;;;19.10;99.90;;;;;;6340989;22;20407;-54
2023/08/26 05:05:40;;;;;;;5.77;5.27;;;19.10;99.90;;;;;;6340929;22;20392;-55
2023/08/26 05:08:06;;;;;;;6.10;5.60;;;19.20;99.90;;;;;;6340218;22;20132;-54
2023/08/26 05:10:31;;;;;;;5.80;5.20;;;19.20;99.90;;;;;;6340035;22;20438;-53
2023/08/26 05:12:57;;;;;;;7.30;5.50;;;19.30;99.90;;;;;;6340298;22;20143;-51
2023/08/26 05:15:23;;;;;;;6.07;5.20;;;19.30;99.90;;;;;;6340493;22;20245;-55
2023/08/26 05:17:48;;;;;;;6.17;5.07;;;19.40;99.90;;;;;;6339552;22;20143;-55
2023/08/26 05:20:14;;;;;;;7.93;5.93;;;19.30;99.90;;;;;;6338043;22;20140;-52
2023/08/26 05:22:43;;;;;;;8.47;6.80;;;19.40;99.90;;;;;;6339145;22;20258;-55
2023/08/26 05:25:08;;;;;;;6.30;5.70;;;19.50;99.90;;;;;;6339583;22;20288;-54
2023/08/26 05:27:34;;;;;;;6.77;5.73;;;19.50;99.90;;;;;;6338985;22;20393;-55
2023/08/26 05:30:00;;;;;;;6.37;5.73;;;19.50;99.90;;;;;;6339128;22;20388;-57
2023/08/26 05:32:26;;;;;;;6.73;5.20;;;19.50;99.90;;;;;;6340342;22;20139;-54
2023/08/26 05:34:52;;;;;;;4.93;4.53;;;19.50;99.90;;;;;;6340189;22;20508;-50
2023/08/26 05:37:17;;;;;;;5.70;4.83;;;19.60;99.90;;;;;;6340235;22;20139;-54
2023/08/26 05:39:43;;;;;;;6.70;4.70;;;19.70;99.90;;;;;;6338636;22;20188;-53
2023/08/26 05:42:09;;;;;;;6.40;5.70;;;19.90;99.90;;;;;;6338353;22;20213;-52
2023/08/26 05:44:34;;;;;;;5.80;4.70;;;20.00;99.90;;;;;;6339582;22;20224;-53
2023/08/26 05:47:00;;;;;;;5.63;5.03;;;20.00;99.90;;;;;;6339742;22;20135;-52
2023/08/26 05:49:26;;;;;;;6.20;5.60;;;20.10;99.90;;;;;;6340453;22;20147;-53
2023/08/26 05:51:51;;;;;;;7.30;5.60;;;20.10;99.90;;;;;;6339288;22;20162;-54
2023/08/26 05:54:17;;;;;;;5.37;4.50;;;20.00;99.90;;;;;;6338948;22;20167;-53
2023/08/26 05:56:43;;;;;;;6.27;5.30;;;19.90;99.90;;;;;;6337945;22;20150;-53
2023/08/26 05:59:08;;;;;;;7.37;5.30;;;20.00;99.90;;;;;;6336984;22;20128;-54
2023/08/26 06:01:34;;;;;;;6.60;5.07;;;20.10;99.90;;;;;;6337094;22;20135;-55
2023/08/26 06:04:00;;;;;;;5.83;4.80;;;20.10;99.90;;;;;;6337884;22;20146;-55
2023/08/26 06:06:26;;;;;;;5.93;5.23;;;20.30;99.90;;;;;;6339570;22;20224;-54
2023/08/26 06:08:53;;;;;;;6.43;5.13;;;20.40;99.90;;;;;;6338707;22;20377;-53
2023/08/26 06:11:18;;;;;;;7.93;5.07;;;20.60;1.00;;;;;;6338213;22;20146;-52
2023/08/26 06:13:44;;;;;;;6.23;4.50;;;20.60;1.00;;;;;;6310652;22;20714;-52
2023/08/26 06:16:10;;;;;;;5.60;4.80;;;20.60;1.00;;;;;;6337301;22;20174;-53
2023/08/26 06:18:36;;;;;;;5.97;5.30;;;20.70;1.00;;;;;;6309173;22;20183;-55
2023/08/26 06:21:02;;;;;;;6.50;5.30;;;20.80;1.00;;;;;;6338636;22;20376;-55
2023/08/26 06:23:29;;;;;;;6.17;4.77;;;20.70;1.00;;;;;;6337955;22;20410;-55
2023/08/26 06:25:56;;;;;;;9.90;5.20;;;20.90;1.00;;;;;;6338464;22;20368;-56
2023/08/26 06:28:23;;;;;;;5.57;5.00;;;21.00;1.00;;;;;;6336095;22;20466;-57
2023/08/26 06:30:49;;;;;;;5.60;4.80;;;21.10;1.00;;;;;;6337639;22;20469;-56
2023/08/26 06:33:15;;;;;;;7.87;5.40;;;21.30;1.00;;;;;;6337151;22;20385;-56
2023/08/26 06:35:46;;;;;;;9.20;5.57;;;21.50;99.90;;;;;;6337068;22;20434;-54
2023/08/26 06:38:12;;;;;;;7.03;4.50;;;21.60;1.00;;;;;;6336944;22;20366;-55
2023/08/26 06:40:37;;;;;;;6.50;4.97;;;21.70;1.00;;;;;;6337564;22;20700;-56
2023/08/26 06:43:03;;;;;;;8.43;5.30;;;21.70;1.00;;;;;;6310360;22;20216;-56
2023/08/26 06:45:30;;;;;;;7.33;5.03;;;21.50;1.00;;;;;;6338770;22;20147;-54
2023/08/26 06:47:56;;;;;;;5.00;4.50;;;21.40;1.00;;;;;;6336840;22;20847;-57
2023/08/26 06:50:23;;;;;;;4.80;4.23;;;21.20;1.00;;;;;;6334974;22;20388;-55
2023/08/26 06:52:49;;;;;;;5.33;4.83;;;21.20;23.60;;;;;;6337545;22;21086;-55
2023/08/26 06:55:18;;;;;;;6.80;4.83;;;21.20;50.60;;;;;;6338370;22;20515;-56
2023/08/26 06:57:44;;;;;;;9.30;5.00;;;21.10;16.70;;;;;;6340621;22;20404;-55
2023/08/26 07:00:12;;;;;;;8.20;5.20;;;21.00;99.90;;;;;;6339810;22;20350;-54
2023/08/26 07:02:37;;;;;;;6.83;4.50;;;21.00;99.90;;;;;;6339824;22;20358;-56
2023/08/26 07:05:04;;;;;;;6.77;5.30;;;20.90;99.90;;;;;;6340434;22;20681;-53
2023/08/26 07:07:29;;;;;;;6.87;5.23;;;20.90;99.90;;;;;;6311382;22;20162;-56
2023/08/26 07:09:55;;;;;;;6.03;4.50;;;20.80;1.00;;;;;;6338758;22;20385;-55
2023/08/26 07:12:21;;;;;;;4.97;4.27;;;20.70;1.00;;;;;;6339378;22;20143;-55
2023/08/26 07:14:46;;;;;;;6.10;4.30;;;20.80;1.00;;;;;;6339596;22;20170;-55
2023/08/26 07:17:15;;;;;;;5.60;4.97;;;20.90;1.00;;;;;;6341012;22;20147;-52
2023/08/26 07:19:41;;;;;;;7.27;4.57;;;21.10;1.00;;;;;;6337901;22;20392;-54
2023/08/26 07:22:07;;;;;;;7.73;5.20;;;21.20;99.90;;;;;;6338134;22;20489;-55
2023/08/26 07:24:33;;;;;;;4.87;3.70;;;21.10;99.90;;;;;;6338565;22;20535;-54
2023/08/26 07:26:59;;;;;;;5.07;4.53;;;21.30;99.90;;;;;;6338515;22;20358;-56
2023/08/26 07:29:24;;;;;;;9.03;5.00;;;21.50;99.90;;;;;;6340487;22;20147;-56
2023/08/26 07:31:53;;;;;;;5.80;4.27;;;21.60;1.00;;;;;;6310987;22;20166;-56
2023/08/26 07:34:19;;;;;;;5.53;4.23;;;21.80;1.00;;;;;;6337171;22;20171;-56
2023/08/26 07:36:45;;;;;;;5.77;4.07;;;21.80;1.00;;;;;;6337628;22;20381;-56
2023/08/26 07:39:10;;;;;;;6.90;4.50;;;22.00;1.00;;;;;;6338579;22;20214;-55
2023/08/26 07:41:36;;;;;;;7.70;4.63;;;22.10;1.00;;;;;;6338117;22;20417;-55
2023/08/26 07:44:03;;;;;;;5.67;3.87;;;22.20;1.00;;;;;;6339585;22;20147;-56
2023/08/26 07:46:28;;;;;;;5.43;4.83;;;22.30;99.90;;;;;;6340666;22;20147;-54
2023/08/26 07:48:54;;;;;;;4.93;3.90;;;22.30;99.90;;;;;;6338607;22;20377;-58
2023/08/26 07:51:20;;;;;;;7.17;4.50;;;22.30;1.00;;;;;;6337510;22;20155;-56
2023/08/26 07:53:46;;;;;;;4.47;4.07;;;22.30;1.00;;;;;;6337253;22;20188;-57
2023/08/26 07:56:12;;;;;;;6.93;4.60;;;22.50;1.00;;;;;;6338122;22;20855;-57
2023/08/26 07:58:38;;;;;;;4.90;4.40;;;22.90;1.00;;;;;;6339551;22;20648;-54
2023/08/26 08:01:03;;;;;;;4.67;4.17;;;23.30;99.90;;;;;;6338143;22;20163;-56
2023/08/26 08:03:29;;;;;;;5.80;4.77;;;23.70;1.00;;;;;;6340265;22;20596;-57
2023/08/26 08:05:55;;;;;;;5.53;4.27;;;23.90;99.90;;;;;;6338172;22;20171;-53
2023/08/26 08:08:22;;;;;;;4.87;4.23;;;23.90;99.90;;;;;;6339767;22;20386;-57
2023/08/26 08:10:49;;;;;;;8.10;4.47;;;23.80;1.00;;;;;;6310944;22;20238;-56
2023/08/26 08:13:15;;;;;;;7.27;5.13;;;23.70;1.00;;;;;;6338674;22;20435;-55
2023/08/26 08:15:41;;;;;;;5.30;3.63;;;23.70;1.00;;;;;;6339150;22;20713;-56
2023/08/26 08:18:07;;;;;;;4.77;4.30;;;23.70;1.00;;;;;;6312068;22;20773;-57
2023/08/26 08:20:32;;;;;;;5.53;4.50;;;23.70;1.00;;;;;;6339111;22;20143;-56
2023/08/26 08:22:58;;;;;;;5.73;3.73;;;23.90;99.90;;;;;;6340199;22;20545;-56
2023/08/26 08:25:27;;;;;;;5.53;4.37;;;23.80;1.00;;;;;;6340387;22;20281;-56
2023/08/26 08:27:53;;;;;;;5.97;4.20;;;23.70;1.00;;;;;;6341064;22;20143;-55
2023/08/26 08:30:20;;;;;;;5.87;4.20;;;23.70;72.30;;;;;;6313249;22;20373;-56
2023/08/26 08:32:45;;;;;;;5.63;4.73;;;23.80;72.90;;;;;;6312151;22;20381;-56
2023/08/26 08:35:11;;;;;;;4.70;3.73;;;23.80;99.90;;;;;;6336729;22;20488;-55
2023/08/26 08:37:37;;;;;;;5.83;3.93;;;24.00;99.90;;;;;;6338247;22;20174;-55
2023/08/26 08:40:03;;;;;;;5.37;4.13;;;24.10;1.00;;;;;;6335698;22;20384;-55
2023/08/26 08:42:32;;;;;;;4.47;4.07;;;24.00;1.00;;;;;;6336972;22;20207;-55
2023/08/26 08:44:58;;;;;;;4.40;4.00;;;23.70;1.00;;;;;;6337329;22;20373;-54
2023/08/26 08:47:26;;;;;;;6.10;3.77;;;23.40;1.00;;;;;;6309171;22;20410;-53
2023/08/26 08:49:53;;;;;;;4.93;4.43;;;23.30;1.00;;;;;;6335424;22;20392;-55
2023/08/26 08:52:19;;;;;;;4.70;4.30;;;23.30;1.00;;;;;;6336080;22;20381;-54
2023/08/26 08:54:45;;;;;;;5.03;4.10;;;23.40;1.00;;;;;;6309337;22;20634;-55
2023/08/26 08:57:15;;;;;;;7.07;3.87;;;23.50;1.00;;;;;;6337288;22;20377;-55
2023/08/26 08:59:41;;;;;;;6.50;4.80;;;23.60;1.00;;;;;;6337992;22;20521;-55
2023/08/26 09:02:07;;;;;;;5.53;3.73;;;23.40;1.00;;;;;;6309616;22;20409;-55
2023/08/26 09:04:33;;;;;;;8.73;4.73;;;23.50;1.00;;;;;;6337642;22;20389;-55
2023/08/26 09:07:00;;;;;;;5.43;4.67;;;23.30;1.00;;;;;;6338306;22;20138;-55
2023/08/26 09:09:26;;;;;;;5.13;4.20;;;23.30;1.00;;;;;;6339494;22;20385;-56
2023/08/26 09:11:52;;;;;;;7.77;5.17;;;23.30;1.00;;;;;;6339081;22;20381;-53
2023/08/26 09:14:17;;;;;;;4.97;4.20;;;23.50;1.00;;;;;;6339649;22;20174;-56
2023/08/26 09:16:44;;;;;;;6.50;4.40;;;23.60;1.00;;;;;;6338523;22;20544;-55
2023/08/26 09:19:13;;;;;;;6.60;5.10;;;23.70;1.00;;;;;;6336432;22;20427;-54
2023/08/26 09:21:48;;;;;;;4.87;3.60;;;23.80;1.00;;;;;;6309498;22;20423;-56
2023/08/26 09:24:18;;;;;;;4.50;4.10;;;24.00;1.00;;;;;;6336078;22;20385;-51
2023/08/26 09:26:58;;;;;;;7.00;4.83;;;24.10;1.00;;;;;;6337905;22;20409;-54
2023/08/26 09:29:25;;;;;;;6.00;4.00;;;24.20;1.00;;;;;;6339011;22;20377;-56
2023/08/26 09:31:52;;;;;;;9.53;4.90;;;24.30;1.00;;;;;;6310466;22;20400;-56
2023/08/26 09:34:32;;;;;;;7.20;5.23;;;24.20;1.00;;;;;;6338662;22;20413;-56
2023/08/26 09:37:01;;;;;;;5.93;3.70;;;23.90;1.00;;;;;;6337665;22;20357;-57
2023/08/26 09:39:28;;;;;;;4.53;4.13;;;23.60;1.00;;;;;;6339820;22;20377;-55
2023/08/26 09:41:58;;;;;;;4.40;3.90;;;23.20;1.00;;;;;;6339880;22;20637;-56
2023/08/26 09:44:24;;;;;;;4.23;3.83;;;23.00;99.90;;;;;;6338259;22;20381;-55
2023/08/26 09:46:50;;;;;;;5.30;4.50;;;22.90;99.90;;;;;;6335999;22;20397;-56
2023/08/26 09:49:16;;;;;;;8.73;5.27;;;22.80;1.00;;;;;;6335488;22;20780;-56
2023/08/26 09:51:46;;;;;;;6.53;4.70;;;22.80;99.90;;;;;;6335731;22;20142;-53
2023/08/26 09:54:15;;;;;;;5.33;4.83;;;22.80;1.00;;;;;;6337695;22;20382;-55
2023/08/26 09:56:41;;;;;;;5.37;4.60;;;22.90;99.90;;;;;;6338033;22;20381;-54
2023/08/26 09:59:07;;;;;;;10.20;5.80;;;23.10;1.00;;;;;;6310959;22;20433;-55
2023/08/26 10:01:33;;;;;;;6.97;4.77;;;23.50;78.50;;;;;;6339024;22;20214;-56
2023/08/26 10:04:08;;;;;;;5.93;5.33;;;23.70;99.90;;;;;;6310953;22;20147;-56
2023/08/26 10:06:44;;;;;;;6.27;5.10;;;23.80;99.90;;;;;;6310985;22;20381;-56
2023/08/26 10:09:32;;;;;;;5.93;4.87;;;23.80;1.00;;;;;;6338650;22;20380;-52
2023/08/26 10:12:03;;;;;;;5.30;4.53;;;24.00;24.20;;;;;;6339480;22;20388;-56
2023/08/26 10:14:29;;;;;;;9.20;5.50;;;24.00;1.00;;;;;;6339330;22;20661;-55
2023/08/26 10:16:56;;;;;;;7.13;5.77;;;23.90;1.00;;;;;;6311792;22;20392;-55
2023/08/26 10:19:23;;;;;;;5.70;5.10;;;23.80;1.00;;;;;;6310842;22;20354;-62
2023/08/26 10:21:49;;;;;;;6.13;5.27;;;23.80;96.10;;;;;;6338369;22;20364;-55
2023/08/26 10:24:15;;;;;;;5.70;5.10;;;23.80;99.90;;;;;;6311147;22;20385;-55
2023/08/26 10:26:41;;;;;;;6.63;6.00;;;23.60;1.00;;;;;;6337870;22;20385;-56
2023/08/26 10:29:07;;;;;;;5.13;4.63;;;23.50;96.20;;;;;;6338868;22;20147;-56
2023/08/26 10:31:35;;;;;;;8.30;5.10;;;23.30;99.90;;;;;;6312860;22;20162;-54
2023/08/26 10:34:07;;;;;;;6.00;5.50;;;23.20;1.00;;;;;;6338559;22;20362;-57
2023/08/26 10:36:38;;;;;;;6.10;5.50;;;23.00;1.00;;;;;;6312655;22;20748;-56
2023/08/26 10:39:20;;;;;;;6.00;4.97;;;22.80;1.00;;;;;;6337839;22;20420;-56
2023/08/26 10:42:09;;;;;;;7.23;5.30;;;22.70;99.90;;;;;;6311852;22;20455;-58
2023/08/26 10:44:38;;;;;;;5.40;4.90;;;22.60;1.00;;;;;;6339332;22;20819;-58
2023/08/26 10:47:03;;;;;;;6.10;5.10;;;22.60;99.90;;;;;;6340514;22;20422;-58
2023/08/26 10:49:30;;;;;;;6.10;5.10;;;22.70;99.90;;;;;;6313218;22;20523;-59
2023/08/26 10:52:09;;;;;;;8.23;5.10;;;22.80;99.90;;;;;;6312822;22;20368;-59
2023/08/26 10:54:35;;;;;;;7.50;5.57;;;22.80;42.00;;;;;;6340082;22;20595;-57
2023/08/26 10:57:07;;;;;;;5.97;5.07;;;23.00;59.90;;;;;;6339703;22;20692;-58
2023/08/26 10:59:39;;;;;;;9.80;6.00;;;23.30;30.10;;;;;;6338696;22;20454;-55
2023/08/26 11:02:11;;;;;;;5.77;5.10;;;23.60;1.00;;;;;;6338822;22;20378;-57
2023/08/26 11:04:44;;;;;;;5.83;4.40;;;23.80;99.90;;;;;;6340049;22;20392;-58
2023/08/26 11:07:19;;;;;;;6.27;5.23;;;23.90;1.00;;;;;;6337958;22;20366;-57
2023/08/26 11:09:45;;;;;;;6.27;5.40;;;24.00;1.00;;;;;;6338121;22;20622;-58
2023/08/26 11:12:28;;;;;;;5.63;5.00;;;24.10;1.00;;;;;;6338768;22;20385;-57
2023/08/26 11:15:02;;;;;;;6.93;4.60;;;24.30;99.90;;;;;;6340623;22;20424;-58
2023/08/26 11:17:27;;;;;;;6.50;4.90;;;24.60;99.90;;;;;;6339710;22;20378;-57
2023/08/26 11:19:53;;;;;;;6.43;5.83;;;24.60;1.00;;;;;;6341097;22;20865;-57
2023/08/26 11:22:26;;;;;;;6.90;6.20;;;24.50;1.00;;;;;;6339117;22;20133;-56
2023/08/26 11:24:53;;;;;;;5.57;5.00;;;24.30;1.00;;;;;;6339029;22;20136;-58
2023/08/26 11:27:19;;;;;;;4.90;4.50;;;24.00;1.00;;;;;;6338779;22;20486;-58
2023/08/26 11:29:45;;;;;;;6.73;5.43;;;23.70;1.00;;;;;;6338327;22;20824;-58
2023/08/26 11:32:11;;;;;;;7.73;5.50;;;23.40;99.90;;;;;;6338627;22;20147;-58
2023/08/26 11:34:38;;;;;;;8.80;5.50;;;23.30;1.00;;;;;;6338554;22;20607;-59
2023/08/26 11:37:05;;;;;;;8.47;6.17;;;23.20;1.00;;;;;;6336471;22;20384;-58
2023/08/26 11:39:31;;;;;;;8.17;5.77;;;23.20;99.90;;;;;;6339753;22;20449;-57
2023/08/26 11:41:57;;;;;;;7.13;5.27;;;23.10;99.90;;;;;;6339593;22;20428;-58
2023/08/26 11:44:23;;;;;;;7.40;4.90;;;23.00;99.90;;;;;;6338277;22;20854;-58
2023/08/26 11:46:50;;;;;;;7.13;5.97;;;22.80;1.00;;;;;;6337903;22;20546;-58
2023/08/26 11:49:19;;;;;;;8.07;5.50;;;22.80;22.20;;;;;;6312548;22;20211;-57
2023/08/26 11:51:45;;;;;;;9.53;5.13;;;22.80;99.90;;;;;;6311843;22;20761;-58
2023/08/26 11:54:24;;;;;;;6.43;5.23;;;22.70;1.00;;;;;;6337843;22;21038;-59
2023/08/26 11:56:50;;;;;;;7.77;4.70;;;22.70;1.00;;;;;;6339215;22;20389;-56
2023/08/26 11:59:22;;;;;;;6.60;6.00;;;22.60;99.90;;;;;;6312608;22;20377;-57
2023/08/26 12:01:48;;;;;;;6.07;5.47;;;22.60;1.00;;;;;;6340196;22;20388;-55
2023/08/26 12:04:15;;;;;;;6.63;5.40;;;22.50;1.00;;;;;;6340330;22;20454;-58
2023/08/26 12:06:42;;;;;;;5.60;5.10;;;22.40;99.90;;;;;;6340115;22;20353;-58
2023/08/26 12:09:08;;;;;;;6.43;5.50;;;22.40;1.00;;;;;;6312761;22;20381;-57
2023/08/26 12:11:37;;;;;;;5.90;5.33;;;22.40;1.00;;;;;;6340827;22;20465;-57
2023/08/26 12:14:17;;;;;;;6.60;5.73;;;22.40;1.00;;;;;;6312548;22;20837;-55
2023/08/26 12:16:42;;;;;;;6.93;6.23;;;22.40;1.00;;;;;;6339718;22;20395;-57
2023/08/26 12:19:17;;;;;;;5.93;5.37;;;22.40;1.00;;;;;;6338511;22;20354;-56
2023/08/26 12:21:46;;;;;;;6.93;5.90;;;22.20;1.00;;;;;;6339339;22;20127;-58
2023/08/26 12:24:12;;;;;;;9.93;6.53;;;22.10;99.90;;;;;;6312682;22;20650;-56
2023/08/26 12:26:39;;;;;;;8.33;7.53;;;22.00;99.90;;;;;;6311230;22;20470;-57
2023/08/26 12:29:10;;;;;;;7.90;7.10;;;21.80;1.00;;;;;;6339758;22;20784;-57
2023/08/26 12:31:40;;;;;;;7.83;6.87;;;21.70;1.00;;;;;;6311680;22;20412;-57
2023/08/26 12:34:07;;;;;;;7.07;6.27;;;21.60;99.90;;;;;;6338219;22;20358;-58
2023/08/26 12:36:33;;;;;;;5.97;5.37;;;21.50;99.90;;;;;;6311271;22;20365;-56
2023/08/26 12:38:59;;;;;;;6.50;5.90;;;21.50;99.90;;;;;;6338852;22;20384;-57
2023/08/26 12:41:26;;;;;;;6.50;5.73;;;21.50;99.90;;;;;;6337657;22;20195;-55
2023/08/26 12:43:55;;;;;;;7.80;6.90;;;21.50;99.90;;;;;;6336593;22;20424;-58
2023/08/26 12:46:21;;;;;;;6.40;5.80;;;21.50;99.90;;;;;;6338779;22;20795;-55
2023/08/26 12:48:50;;;;;;;6.17;5.57;;;21.40;14.00;;;;;;6312227;22;20374;-57
2023/08/26 12:51:16;;;;;;;6.00;5.13;;;21.20;1.00;;;;;;6313505;22;20391;-56